sensor_id;sensor_type;location;lat;lon;timestamp;P1;P2;P0
51258;PMS7003;37327;54.254;18.504;2023-03-13T00:00:00;4;4;3
51258;PMS7003;37327;54.254;18.504;2023-03-13T00:03:19;11;3;2
51258;PMS7003;37327;54.254;18.504;2023-03-13T00:06:38;5;4;3
51258;PMS7003;37327;54.254;18.504;2023-03-13T00:09:57;5;5;4
51258;PMS7003;37327;54.254;18.504;2023-03-13T00:13:14;12;10;7
51258;PMS7003;37327;54.254;18.504;2023-03-13T00:16:32;12;8;6
51258;PMS7003;37327;54.254;18.504;2023-03-13T00:19:52;6;4;3
51258;PMS7003;37327;54.254;18.504;2023-03-13T00:23:11;6;4;3
51258;PMS7003;37327;54.254;18.504;2023-03-13T00:26:28;6;4;4
51258;PMS7003;37327;54.254;18.504;2023-03-13T00:29:46;6;5;5
51258;PMS7003;37327;54.254;18.504;2023-03-13T00:33:05;6;6;5
51258;PMS7003;37327;54.254;18.504;2023-03-13T00:36:23;5;5;4
51258;PMS7003;37327;54.254;18.504;2023-03-13T00:39:42;5;3;2
51258;PMS7003;37327;54.254;18.504;2023-03-13T00:43:00;5;3;2
51258;PMS7003;37327;54.254;18.504;2023-03-13T00:46:19;8;6;5
51258;PMS7003;37327;54.254;18.504;2023-03-13T00:49:38;3;3;3
51258;PMS7003;37327;54.254;18.504;2023-03-13T00:52:55;7;5;4
51258;PMS7003;37327;54.254;18.504;2023-03-13T00:56:13;4;4;2
51258;PMS7003;37327;54.254;18.504;2023-03-13T00:59:32;4;2;2
51258;PMS7003;37327;54.254;18.504;2023-03-13T01:02:49;3;2;2
51258;PMS7003;37327;54.254;18.504;2023-03-13T01:06:08;4;3;3
51258;PMS7003;37327;54.254;18.504;2023-03-13T01:09:27;3;2;2
51258;PMS7003;37327;54.254;18.504;2023-03-13T01:12:44;4;2;1
51258;PMS7003;37327;54.254;18.504;2023-03-13T01:19:29;5;3;3
51258;PMS7003;37327;54.254;18.504;2023-03-13T01:22:46;7;4;4
51258;PMS7003;37327;54.254;18.504;2023-03-13T01:26:04;7;4;3
51258;PMS7003;37327;54.254;18.504;2023-03-13T01:29:23;4;3;3
51258;PMS7003;37327;54.254;18.504;2023-03-13T01:32:40;4;2;2
51258;PMS7003;37327;54.254;18.504;2023-03-13T01:36:00;3;3;2
51258;PMS7003;37327;54.254;18.504;2023-03-13T01:39:19;4;4;2
51258;PMS7003;37327;54.254;18.504;2023-03-13T01:49:33;4;3;3
51258;PMS7003;37327;54.254;18.504;2023-03-13T01:52:51;4;2;2
51258;PMS7003;37327;54.254;18.504;2023-03-13T01:56:11;6;5;3
51258;PMS7003;37327;54.254;18.504;2023-03-13T02:03:04;7;5;4
51258;PMS7003;37327;54.254;18.504;2023-03-13T02:06:26;4;2;2
51258;PMS7003;37327;54.254;18.504;2023-03-13T02:09:48;5;5;4
51258;PMS7003;37327;54.254;18.504;2023-03-13T02:13:08;12;6;5
51258;PMS7003;37327;54.254;18.504;2023-03-13T02:16:32;8;6;5
51258;PMS7003;37327;54.254;18.504;2023-03-13T02:19:51;7;5;4
51258;PMS7003;37327;54.254;18.504;2023-03-13T02:23:13;6;6;6
51258;PMS7003;37327;54.254;18.504;2023-03-13T02:26:37;9;7;5
51258;PMS7003;37327;54.254;18.504;2023-03-13T02:29:55;10;9;7
51258;PMS7003;37327;54.254;18.504;2023-03-13T02:33:14;9;6;5
51258;PMS7003;37327;54.254;18.504;2023-03-13T02:36:33;6;6;4
51258;PMS7003;37327;54.254;18.504;2023-03-13T02:39:50;8;2;2
51258;PMS7003;37327;54.254;18.504;2023-03-13T02:43:14;5;5;4
51258;PMS7003;37327;54.254;18.504;2023-03-13T02:50:02;14;7;5
51258;PMS7003;37327;54.254;18.504;2023-03-13T02:53:19;5;3;3
51258;PMS7003;37327;54.254;18.504;2023-03-13T02:56:38;9;6;6
51258;PMS7003;37327;54.254;18.504;2023-03-13T02:59:58;10;8;5
51258;PMS7003;37327;54.254;18.504;2023-03-13T03:03:16;9;7;6
51258;PMS7003;37327;54.254;18.504;2023-03-13T03:06:33;7;5;4
51258;PMS7003;37327;54.254;18.504;2023-03-13T03:09:51;8;7;6
51258;PMS7003;37327;54.254;18.504;2023-03-13T03:13:08;7;7;5
51258;PMS7003;37327;54.254;18.504;2023-03-13T03:16:25;8;6;5
51258;PMS7003;37327;54.254;18.504;2023-03-13T03:19:43;6;6;5
51258;PMS7003;37327;54.254;18.504;2023-03-13T03:23:00;9;7;5
51258;PMS7003;37327;54.254;18.504;2023-03-13T03:26:17;8;6;5
51258;PMS7003;37327;54.254;18.504;2023-03-13T03:29:35;6;5;4
51258;PMS7003;37327;54.254;18.504;2023-03-13T03:32:52;7;6;4
51258;PMS7003;37327;54.254;18.504;2023-03-13T03:36:13;6;1;0
51258;PMS7003;37327;54.254;18.504;2023-03-13T03:39:32;5;4;4
51258;PMS7003;37327;54.254;18.504;2023-03-13T03:42:49;4;4;3
51258;PMS7003;37327;54.254;18.504;2023-03-13T03:46:07;8;6;5
51258;PMS7003;37327;54.254;18.504;2023-03-13T03:49:25;6;6;5
51258;PMS7003;37327;54.254;18.504;2023-03-13T03:52:43;5;5;5
51258;PMS7003;37327;54.254;18.504;2023-03-13T03:56:00;5;3;3
51258;PMS7003;37327;54.254;18.504;2023-03-13T03:59:17;7;5;5
51258;PMS7003;37327;54.254;18.504;2023-03-13T04:02:35;12;7;5
51258;PMS7003;37327;54.254;18.504;2023-03-13T04:05:52;8;7;5
51258;PMS7003;37327;54.254;18.504;2023-03-13T04:09:10;5;5;4
51258;PMS7003;37327;54.254;18.504;2023-03-13T04:12:27;7;5;5
51258;PMS7003;37327;54.254;18.504;2023-03-13T04:15:44;10;6;5
51258;PMS7003;37327;54.254;18.504;2023-03-13T04:19:03;7;6;6
51258;PMS7003;37327;54.254;18.504;2023-03-13T04:22:21;7;6;5
51258;PMS7003;37327;54.254;18.504;2023-03-13T04:25:38;7;7;5
51258;PMS7003;37327;54.254;18.504;2023-03-13T04:28:55;4;4;4
51258;PMS7003;37327;54.254;18.504;2023-03-13T04:32:12;9;7;6
51258;PMS7003;37327;54.254;18.504;2023-03-13T04:35:30;11;7;5
51258;PMS7003;37327;54.254;18.504;2023-03-13T04:38:47;9;6;6
51258;PMS7003;37327;54.254;18.504;2023-03-13T04:42:05;8;5;5
51258;PMS7003;37327;54.254;18.504;2023-03-13T04:45:23;9;8;7
51258;PMS7003;37327;54.254;18.504;2023-03-13T04:48:41;7;6;5
51258;PMS7003;37327;54.254;18.504;2023-03-13T04:51:58;3;0;0
51258;PMS7003;37327;54.254;18.504;2023-03-13T04:55:15;9;7;5
51258;PMS7003;37327;54.254;18.504;2023-03-13T04:58:32;17;11;7
51258;PMS7003;37327;54.254;18.504;2023-03-13T05:01:50;11;7;7
51258;PMS7003;37327;54.254;18.504;2023-03-13T05:05:07;6;5;4
51258;PMS7003;37327;54.254;18.504;2023-03-13T05:08:25;8;6;6
51258;PMS7003;37327;54.254;18.504;2023-03-13T05:11:42;8;6;4
51258;PMS7003;37327;54.254;18.504;2023-03-13T05:14:59;11;9;6
51258;PMS7003;37327;54.254;18.504;2023-03-13T05:18:16;12;8;7
51258;PMS7003;37327;54.254;18.504;2023-03-13T05:21:34;9;8;6
51258;PMS7003;37327;54.254;18.504;2023-03-13T05:24:51;7;7;6
51258;PMS7003;37327;54.254;18.504;2023-03-13T05:28:08;10;8;7
51258;PMS7003;37327;54.254;18.504;2023-03-13T05:31:25;13;11;7
51258;PMS7003;37327;54.254;18.504;2023-03-13T05:34:43;11;8;6
51258;PMS7003;37327;54.254;18.504;2023-03-13T05:38:00;7;6;5
51258;PMS7003;37327;54.254;18.504;2023-03-13T05:41:17;12;9;6
51258;PMS7003;37327;54.254;18.504;2023-03-13T05:44:34;9;9;7
51258;PMS7003;37327;54.254;18.504;2023-03-13T05:47:52;11;8;6
51258;PMS7003;37327;54.254;18.504;2023-03-13T05:51:09;10;8;6
51258;PMS7003;37327;54.254;18.504;2023-03-13T05:54:27;9;8;6
51258;PMS7003;37327;54.254;18.504;2023-03-13T05:57:44;8;7;5
51258;PMS7003;37327;54.254;18.504;2023-03-13T06:01:07;10;7;6
51258;PMS7003;37327;54.254;18.504;2023-03-13T06:04:26;9;9;7
51258;PMS7003;37327;54.254;18.504;2023-03-13T06:07:43;9;8;7
51258;PMS7003;37327;54.254;18.504;2023-03-13T06:11:01;9;9;7
51258;PMS7003;37327;54.254;18.504;2023-03-13T06:14:18;11;9;8
51258;PMS7003;37327;54.254;18.504;2023-03-13T06:17:35;10;9;7
51258;PMS7003;37327;54.254;18.504;2023-03-13T06:20:57;14;10;8
51258;PMS7003;37327;54.254;18.504;2023-03-13T06:24:17;10;8;7
51258;PMS7003;37327;54.254;18.504;2023-03-13T06:27:34;13;8;8
51258;PMS7003;37327;54.254;18.504;2023-03-13T06:30:51;9;9;7
51258;PMS7003;37327;54.254;18.504;2023-03-13T06:34:12;13;12;8
51258;PMS7003;37327;54.254;18.504;2023-03-13T06:37:29;12;9;8
51258;PMS7003;37327;54.254;18.504;2023-03-13T06:40:46;14;9;7
51258;PMS7003;37327;54.254;18.504;2023-03-13T06:44:04;9;8;7
51258;PMS7003;37327;54.254;18.504;2023-03-13T06:47:21;13;9;8
51258;PMS7003;37327;54.254;18.504;2023-03-13T06:50:38;8;8;7
51258;PMS7003;37327;54.254;18.504;2023-03-13T06:53:57;10;10;7
51258;PMS7003;37327;54.254;18.504;2023-03-13T06:57:14;10;9;8
51258;PMS7003;37327;54.254;18.504;2023-03-13T07:00:31;10;8;7
51258;PMS7003;37327;54.254;18.504;2023-03-13T07:03:50;11;11;8
51258;PMS7003;37327;54.254;18.504;2023-03-13T07:07:07;8;7;6
51258;PMS7003;37327;54.254;18.504;2023-03-13T07:10:24;11;10;7
51258;PMS7003;37327;54.254;18.504;2023-03-13T07:13:42;7;7;5
51258;PMS7003;37327;54.254;18.504;2023-03-13T07:16:59;7;7;5
51258;PMS7003;37327;54.254;18.504;2023-03-13T07:20:17;8;8;6
51258;PMS7003;37327;54.254;18.504;2023-03-13T07:23:34;5;4;2
51258;PMS7003;37327;54.254;18.504;2023-03-13T07:26:52;8;7;3
51258;PMS7003;37327;54.254;18.504;2023-03-13T07:30:09;5;4;3
51258;PMS7003;37327;54.254;18.504;2023-03-13T07:33:27;12;9;7
51258;PMS7003;37327;54.254;18.504;2023-03-13T07:36:44;14;8;6
51258;PMS7003;37327;54.254;18.504;2023-03-13T07:40:02;7;7;6
51258;PMS7003;37327;54.254;18.504;2023-03-13T07:43:20;12;9;6
51258;PMS7003;37327;54.254;18.504;2023-03-13T07:46:38;8;7;5
51258;PMS7003;37327;54.254;18.504;2023-03-13T07:49:55;11;7;7
51258;PMS7003;37327;54.254;18.504;2023-03-13T07:53:12;11;10;6
51258;PMS7003;37327;54.254;18.504;2023-03-13T07:56:38;8;7;6
51258;PMS7003;37327;54.254;18.504;2023-03-13T07:59:55;7;7;5
51258;PMS7003;37327;54.254;18.504;2023-03-13T08:03:13;5;5;4
51258;PMS7003;37327;54.254;18.504;2023-03-13T08:06:31;10;7;5
51258;PMS7003;37327;54.254;18.504;2023-03-13T08:09:51;10;8;6
51258;PMS7003;37327;54.254;18.504;2023-03-13T08:13:09;11;9;8
51258;PMS7003;37327;54.254;18.504;2023-03-13T08:16:26;9;8;6
51258;PMS7003;37327;54.254;18.504;2023-03-13T08:19:49;9;8;5
51258;PMS7003;37327;54.254;18.504;2023-03-13T08:23:06;12;10;9
51258;PMS7003;37327;54.254;18.504;2023-03-13T08:26:25;8;7;6
51258;PMS7003;37327;54.254;18.504;2023-03-13T08:29:44;10;9;7
51258;PMS7003;37327;54.254;18.504;2023-03-13T08:33:02;11;8;6
51258;PMS7003;37327;54.254;18.504;2023-03-13T08:36:20;11;10;8
51258;PMS7003;37327;54.254;18.504;2023-03-13T08:39:40;14;9;7
51258;PMS7003;37327;54.254;18.504;2023-03-13T08:43:00;12;9;8
51258;PMS7003;37327;54.254;18.504;2023-03-13T08:46:17;10;10;8
51258;PMS7003;37327;54.254;18.504;2023-03-13T08:49:35;13;11;6
51258;PMS7003;37327;54.254;18.504;2023-03-13T08:52:53;6;4;2
51258;PMS7003;37327;54.254;18.504;2023-03-13T08:56:11;12;11;8
51258;PMS7003;37327;54.254;18.504;2023-03-13T08:59:31;14;12;10
51258;PMS7003;37327;54.254;18.504;2023-03-13T09:02:48;13;12;10
51258;PMS7003;37327;54.254;18.504;2023-03-13T09:06:06;13;10;8
51258;PMS7003;37327;54.254;18.504;2023-03-13T09:09:25;13;12;9
51258;PMS7003;37327;54.254;18.504;2023-03-13T09:12:42;8;8;4
51258;PMS7003;37327;54.254;18.504;2023-03-13T09:16:04;13;11;7
51258;PMS7003;37327;54.254;18.504;2023-03-13T09:19:23;12;12;9
51258;PMS7003;37327;54.254;18.504;2023-03-13T09:22:41;14;7;6
51258;PMS7003;37327;54.254;18.504;2023-03-13T09:25:58;12;10;8
51258;PMS7003;37327;54.254;18.504;2023-03-13T09:29:16;11;11;8
51258;PMS7003;37327;54.254;18.504;2023-03-13T09:32:33;11;9;8
51258;PMS7003;37327;54.254;18.504;2023-03-13T09:35:50;15;10;9
51258;PMS7003;37327;54.254;18.504;2023-03-13T09:39:08;13;12;10
51258;PMS7003;37327;54.254;18.504;2023-03-13T09:45:57;15;12;9
51258;PMS7003;37327;54.254;18.504;2023-03-13T09:52:52;7;7;5
51258;PMS7003;37327;54.254;18.504;2023-03-13T09:56:16;9;9;8
51258;PMS7003;37327;54.254;18.504;2023-03-13T09:59:40;9;8;6
51258;PMS7003;37327;54.254;18.504;2023-03-13T10:06:40;10;9;7
51258;PMS7003;37327;54.254;18.504;2023-03-13T10:10:00;12;8;6
51258;PMS7003;37327;54.254;18.504;2023-03-13T10:16:56;12;8;7
51258;PMS7003;37327;54.254;18.504;2023-03-13T10:20:22;10;9;8
51258;PMS7003;37327;54.254;18.504;2023-03-13T10:23:51;10;10;8
51258;PMS7003;37327;54.254;18.504;2023-03-13T10:27:09;9;9;7
51258;PMS7003;37327;54.254;18.504;2023-03-13T10:30:33;10;10;8
51258;PMS7003;37327;54.254;18.504;2023-03-13T10:33:53;10;9;8
51258;PMS7003;37327;54.254;18.504;2023-03-13T10:37:18;6;5;4
51258;PMS7003;37327;54.254;18.504;2023-03-13T10:40:37;11;7;6
51258;PMS7003;37327;54.254;18.504;2023-03-13T10:43:59;9;9;7
51258;PMS7003;37327;54.254;18.504;2023-03-13T10:47:20;10;9;7
51258;PMS7003;37327;54.254;18.504;2023-03-13T10:50:37;9;8;6
51258;PMS7003;37327;54.254;18.504;2023-03-13T10:53:59;9;9;7
51258;PMS7003;37327;54.254;18.504;2023-03-13T11:00:46;12;9;8
51258;PMS7003;37327;54.254;18.504;2023-03-13T11:04:18;11;9;8
51258;PMS7003;37327;54.254;18.504;2023-03-13T11:07:33;11;9;7
51258;PMS7003;37327;54.254;18.504;2023-03-13T11:10:56;15;11;9
51258;PMS7003;37327;54.254;18.504;2023-03-13T11:14:19;10;9;7
51258;PMS7003;37327;54.254;18.504;2023-03-13T11:17:41;14;12;10
51258;PMS7003;37327;54.254;18.504;2023-03-13T11:21:00;9;8;7
51258;PMS7003;37327;54.254;18.504;2023-03-13T11:27:54;10;10;7
51258;PMS7003;37327;54.254;18.504;2023-03-13T11:31:23;13;10;8
51258;PMS7003;37327;54.254;18.504;2023-03-13T11:34:51;11;10;9
51258;PMS7003;37327;54.254;18.504;2023-03-13T11:38:21;10;9;9
51258;PMS7003;37327;54.254;18.504;2023-03-13T11:41:50;9;6;5
51258;PMS7003;37327;54.254;18.504;2023-03-13T11:45:20;12;11;9
51258;PMS7003;37327;54.254;18.504;2023-03-13T11:52:13;8;7;6
51258;PMS7003;37327;54.254;18.504;2023-03-13T11:55:44;10;10;8
51258;PMS7003;37327;54.254;18.504;2023-03-13T12:02:38;11;9;8
51258;PMS7003;37327;54.254;18.504;2023-03-13T12:06:09;10;9;8
51258;PMS7003;37327;54.254;18.504;2023-03-13T12:09:35;13;10;9
51258;PMS7003;37327;54.254;18.504;2023-03-13T12:30:36;16;9;7
51258;PMS7003;37327;54.254;18.504;2023-03-13T12:44:26;12;11;8
51258;PMS7003;37327;54.254;18.504;2023-03-13T13:01:46;8;7;6
51258;PMS7003;37327;54.254;18.504;2023-03-13T13:05:16;9;8;8
51258;PMS7003;37327;54.254;18.504;2023-03-13T13:08:38;6;5;4
51258;PMS7003;37327;54.254;18.504;2023-03-13T13:12:02;7;7;6
51258;PMS7003;37327;54.254;18.504;2023-03-13T13:15:25;10;9;7
51258;PMS7003;37327;54.254;18.504;2023-03-13T13:18:45;10;9;7
51258;PMS7003;37327;54.254;18.504;2023-03-13T13:25:34;9;8;8
51258;PMS7003;37327;54.254;18.504;2023-03-13T13:28:52;8;6;5
51258;PMS7003;37327;54.254;18.504;2023-03-13T13:32:12;7;7;6
51258;PMS7003;37327;54.254;18.504;2023-03-13T13:35:34;6;6;5
51258;PMS7003;37327;54.254;18.504;2023-03-13T13:38:53;5;4;4
51258;PMS7003;37327;54.254;18.504;2023-03-13T13:45:53;5;4;3
51258;PMS7003;37327;54.254;18.504;2023-03-13T13:52:37;6;4;3
51258;PMS7003;37327;54.254;18.504;2023-03-13T13:55:56;3;3;3
51258;PMS7003;37327;54.254;18.504;2023-03-13T14:02:52;3;2;2
51258;PMS7003;37327;54.254;18.504;2023-03-13T14:09:47;2;2;2
51258;PMS7003;37327;54.254;18.504;2023-03-13T14:13:10;4;4;3
51258;PMS7003;37327;54.254;18.504;2023-03-13T14:16:32;2;2;2
51258;PMS7003;37327;54.254;18.504;2023-03-13T14:19:49;2;2;1
51258;PMS7003;37327;54.254;18.504;2023-03-13T14:23:07;4;2;2
51258;PMS7003;37327;54.254;18.504;2023-03-13T14:26:27;1;1;1
51258;PMS7003;37327;54.254;18.504;2023-03-13T14:33:14;2;1;1
51258;PMS7003;37327;54.254;18.504;2023-03-13T14:43:31;2;2;1
51258;PMS7003;37327;54.254;18.504;2023-03-13T14:46:53;2;1;1
51258;PMS7003;37327;54.254;18.504;2023-03-13T14:50:13;1;1;1
51258;PMS7003;37327;54.254;18.504;2023-03-13T14:53:31;1;1;1
51258;PMS7003;37327;54.254;18.504;2023-03-13T14:56:50;3;1;1
51258;PMS7003;37327;54.254;18.504;2023-03-13T15:03:49;1;1;1
51258;PMS7003;37327;54.254;18.504;2023-03-13T15:07:08;1;1;1
51258;PMS7003;37327;54.254;18.504;2023-03-13T15:13:57;1;1;1
51258;PMS7003;37327;54.254;18.504;2023-03-13T15:20:41;1;1;1
51258;PMS7003;37327;54.254;18.504;2023-03-13T15:24:03;2;2;1
51258;PMS7003;37327;54.254;18.504;2023-03-13T15:27:29;1;1;1
51258;PMS7003;37327;54.254;18.504;2023-03-13T15:30:49;1;1;1
51258;PMS7003;37327;54.254;18.504;2023-03-13T15:34:09;2;0;0
51258;PMS7003;37327;54.254;18.504;2023-03-13T15:37:29;1;1;1
51258;PMS7003;37327;54.254;18.504;2023-03-13T15:40:48;2;1;1
51258;PMS7003;37327;54.254;18.504;2023-03-13T15:44:08;0;0;0
51258;PMS7003;37327;54.254;18.504;2023-03-13T15:47:26;2;2;2
51258;PMS7003;37327;54.254;18.504;2023-03-13T15:50:44;0;0;0
51258;PMS7003;37327;54.254;18.504;2023-03-13T15:54:06;1;1;1
51258;PMS7003;37327;54.254;18.504;2023-03-13T15:57:24;0;0;0
51258;PMS7003;37327;54.254;18.504;2023-03-13T16:00:43;2;0;0
51258;PMS7003;37327;54.254;18.504;2023-03-13T16:04:01;1;0;0
51258;PMS7003;37327;54.254;18.504;2023-03-13T16:07:19;1;1;0
51258;PMS7003;37327;54.254;18.504;2023-03-13T16:10:37;1;0;0
51258;PMS7003;37327;54.254;18.504;2023-03-13T16:13:55;0;0;0
51258;PMS7003;37327;54.254;18.504;2023-03-13T16:17:17;1;1;1
51258;PMS7003;37327;54.254;18.504;2023-03-13T16:20:37;1;0;0
51258;PMS7003;37327;54.254;18.504;2023-03-13T16:24:00;1;1;1
51258;PMS7003;37327;54.254;18.504;2023-03-13T16:27:18;0;0;0
51258;PMS7003;37327;54.254;18.504;2023-03-13T16:30:36;1;1;1
51258;PMS7003;37327;54.254;18.504;2023-03-13T16:33:58;1;1;1
51258;PMS7003;37327;54.254;18.504;2023-03-13T16:37:18;0;0;0
51258;PMS7003;37327;54.254;18.504;2023-03-13T16:40:37;1;0;0
51258;PMS7003;37327;54.254;18.504;2023-03-13T16:43:54;1;1;1
51258;PMS7003;37327;54.254;18.504;2023-03-13T16:47:14;2;1;1
51258;PMS7003;37327;54.254;18.504;2023-03-13T16:50:37;1;1;1
51258;PMS7003;37327;54.254;18.504;2023-03-13T16:53:55;2;2;1
51258;PMS7003;37327;54.254;18.504;2023-03-13T16:57:19;1;1;1
51258;PMS7003;37327;54.254;18.504;2023-03-13T17:00:42;2;2;2
51258;PMS7003;37327;54.254;18.504;2023-03-13T17:04:02;1;1;1
51258;PMS7003;37327;54.254;18.504;2023-03-13T17:07:22;1;1;1
51258;PMS7003;37327;54.254;18.504;2023-03-13T17:10:42;2;1;1
51258;PMS7003;37327;54.254;18.504;2023-03-13T17:14:00;3;3;3
51258;PMS7003;37327;54.254;18.504;2023-03-13T17:17:20;3;3;3
51258;PMS7003;37327;54.254;18.504;2023-03-13T17:20:38;7;4;4
51258;PMS7003;37327;54.254;18.504;2023-03-13T17:23:56;3;3;3
51258;PMS7003;37327;54.254;18.504;2023-03-13T17:27:16;5;4;4
51258;PMS7003;37327;54.254;18.504;2023-03-13T17:30:34;5;4;4
51258;PMS7003;37327;54.254;18.504;2023-03-13T17:33:51;5;5;4
51258;PMS7003;37327;54.254;18.504;2023-03-13T17:40:37;4;3;3
51258;PMS7003;37327;54.254;18.504;2023-03-13T17:43:57;6;5;4
51258;PMS7003;37327;54.254;18.504;2023-03-13T17:47:15;7;7;6
51258;PMS7003;37327;54.254;18.504;2023-03-13T17:50:39;5;5;5
51258;PMS7003;37327;54.254;18.504;2023-03-13T17:53:57;5;5;5
51258;PMS7003;37327;54.254;18.504;2023-03-13T17:57:16;6;6;5
51258;PMS7003;37327;54.254;18.504;2023-03-13T18:00:36;5;5;4
51258;PMS7003;37327;54.254;18.504;2023-03-13T18:04:01;6;4;4
51258;PMS7003;37327;54.254;18.504;2023-03-13T18:07:26;6;6;6
51258;PMS7003;37327;54.254;18.504;2023-03-13T18:10:44;7;6;6
51258;PMS7003;37327;54.254;18.504;2023-03-13T18:14:02;1;0;0
51258;PMS7003;37327;54.254;18.504;2023-03-13T18:17:21;8;6;5
51258;PMS7003;37327;54.254;18.504;2023-03-13T18:20:41;7;6;5
51258;PMS7003;37327;54.254;18.504;2023-03-13T18:23:58;5;4;4
51258;PMS7003;37327;54.254;18.504;2023-03-13T18:27:17;5;4;4
51258;PMS7003;37327;54.254;18.504;2023-03-13T18:30:36;4;4;4
51258;PMS7003;37327;54.254;18.504;2023-03-13T18:33:55;4;4;3
51258;PMS7003;37327;54.254;18.504;2023-03-13T18:37:18;4;4;4
51258;PMS7003;37327;54.254;18.504;2023-03-13T18:40:45;5;5;5
51258;PMS7003;37327;54.254;18.504;2023-03-13T18:44:03;4;4;4
51258;PMS7003;37327;54.254;18.504;2023-03-13T18:47:21;8;7;6
51258;PMS7003;37327;54.254;18.504;2023-03-13T18:50:43;7;6;5
51258;PMS7003;37327;54.254;18.504;2023-03-13T18:54:01;5;5;4
51258;PMS7003;37327;54.254;18.504;2023-03-13T18:57:18;10;8;7
51258;PMS7003;37327;54.254;18.504;2023-03-13T19:00:36;7;6;5
51258;PMS7003;37327;54.254;18.504;2023-03-13T19:03:54;7;7;7
51258;PMS7003;37327;54.254;18.504;2023-03-13T19:07:15;7;6;5
51258;PMS7003;37327;54.254;18.504;2023-03-13T19:10:41;7;6;5
51258;PMS7003;37327;54.254;18.504;2023-03-13T19:13:59;9;8;8
51258;PMS7003;37327;54.254;18.504;2023-03-13T19:17:22;5;5;5
51258;PMS7003;37327;54.254;18.504;2023-03-13T19:20:46;10;7;7
51258;PMS7003;37327;54.254;18.504;2023-03-13T19:24:06;9;9;8
51258;PMS7003;37327;54.254;18.504;2023-03-13T19:27:25;8;7;7
51258;PMS7003;37327;54.254;18.504;2023-03-13T19:30:42;8;8;7
51258;PMS7003;37327;54.254;18.504;2023-03-13T19:34:02;6;6;6
51258;PMS7003;37327;54.254;18.504;2023-03-13T19:37:19;10;8;7
51258;PMS7003;37327;54.254;18.504;2023-03-13T19:40:37;8;8;8
51258;PMS7003;37327;54.254;18.504;2023-03-13T19:43:54;11;7;7
51258;PMS7003;37327;54.254;18.504;2023-03-13T19:47:12;9;9;8
51258;PMS7003;37327;54.254;18.504;2023-03-13T19:50:31;9;8;7
51258;PMS7003;37327;54.254;18.504;2023-03-13T19:53:49;9;8;8
51258;PMS7003;37327;54.254;18.504;2023-03-13T19:57:08;9;9;9
51258;PMS7003;37327;54.254;18.504;2023-03-13T20:00:27;10;9;8
51258;PMS7003;37327;54.254;18.504;2023-03-13T20:03:44;12;12;9
51258;PMS7003;37327;54.254;18.504;2023-03-13T20:07:02;9;9;9
51258;PMS7003;37327;54.254;18.504;2023-03-13T20:10:21;11;9;9
51258;PMS7003;37327;54.254;18.504;2023-03-13T20:13:39;11;10;9
51258;PMS7003;37327;54.254;18.504;2023-03-13T20:16:57;12;9;8
51258;PMS7003;37327;54.254;18.504;2023-03-13T20:20:15;10;10;9
51258;PMS7003;37327;54.254;18.504;2023-03-13T20:23:33;12;11;10
51258;PMS7003;37327;54.254;18.504;2023-03-13T20:26:50;10;8;7
51258;PMS7003;37327;54.254;18.504;2023-03-13T20:30:08;14;13;11
51258;PMS7003;37327;54.254;18.504;2023-03-13T20:33:26;11;10;9
51258;PMS7003;37327;54.254;18.504;2023-03-13T20:36:44;9;9;8
51258;PMS7003;37327;54.254;18.504;2023-03-13T20:40:01;9;8;7
51258;PMS7003;37327;54.254;18.504;2023-03-13T20:43:21;12;12;10
51258;PMS7003;37327;54.254;18.504;2023-03-13T20:46:39;10;8;7
51258;PMS7003;37327;54.254;18.504;2023-03-13T20:49:56;10;10;9
51258;PMS7003;37327;54.254;18.504;2023-03-13T20:53:14;9;9;8
51258;PMS7003;37327;54.254;18.504;2023-03-13T20:56:31;10;10;9
51258;PMS7003;37327;54.254;18.504;2023-03-13T20:59:49;10;9;7
51258;PMS7003;37327;54.254;18.504;2023-03-13T21:03:06;9;8;8
51258;PMS7003;37327;54.254;18.504;2023-03-13T21:06:24;10;9;8
51258;PMS7003;37327;54.254;18.504;2023-03-13T21:09:42;11;9;8
51258;PMS7003;37327;54.254;18.504;2023-03-13T21:13:00;13;9;7
51258;PMS7003;37327;54.254;18.504;2023-03-13T21:16:17;10;8;7
51258;PMS7003;37327;54.254;18.504;2023-03-13T21:19:36;8;8;7
51258;PMS7003;37327;54.254;18.504;2023-03-13T21:22:54;8;8;5
51258;PMS7003;37327;54.254;18.504;2023-03-13T21:26:11;9;8;7
51258;PMS7003;37327;54.254;18.504;2023-03-13T21:29:29;6;6;6
51258;PMS7003;37327;54.254;18.504;2023-03-13T21:32:47;6;6;6
51258;PMS7003;37327;54.254;18.504;2023-03-13T21:36:04;8;8;6
51258;PMS7003;37327;54.254;18.504;2023-03-13T21:39:22;6;5;5
51258;PMS7003;37327;54.254;18.504;2023-03-13T21:42:39;7;6;6
51258;PMS7003;37327;54.254;18.504;2023-03-13T21:45:57;8;8;7
51258;PMS7003;37327;54.254;18.504;2023-03-13T21:49:14;9;7;6
51258;PMS7003;37327;54.254;18.504;2023-03-13T21:52:32;6;4;4
51258;PMS7003;37327;54.254;18.504;2023-03-13T21:55:55;8;6;6
51258;PMS7003;37327;54.254;18.504;2023-03-13T21:59:12;6;6;5
51258;PMS7003;37327;54.254;18.504;2023-03-13T22:02:30;9;8;6
51258;PMS7003;37327;54.254;18.504;2023-03-13T22:05:48;10;8;7
51258;PMS7003;37327;54.254;18.504;2023-03-13T22:09:05;7;7;6
51258;PMS7003;37327;54.254;18.504;2023-03-13T22:12:24;7;7;7
51258;PMS7003;37327;54.254;18.504;2023-03-13T22:15:42;5;3;2
51258;PMS7003;37327;54.254;18.504;2023-03-13T22:19:01;7;6;5
51258;PMS7003;37327;54.254;18.504;2023-03-13T22:22:19;2;2;1
51258;PMS7003;37327;54.254;18.504;2023-03-13T22:25:41;7;7;5
51258;PMS7003;37327;54.254;18.504;2023-03-13T22:29:00;9;8;7
51258;PMS7003;37327;54.254;18.504;2023-03-13T22:32:18;7;7;7
51258;PMS7003;37327;54.254;18.504;2023-03-13T22:35:36;6;6;5
51258;PMS7003;37327;54.254;18.504;2023-03-13T22:38:54;9;6;6
51258;PMS7003;37327;54.254;18.504;2023-03-13T22:42:11;7;6;6
51258;PMS7003;37327;54.254;18.504;2023-03-13T22:45:28;9;8;7
51258;PMS7003;37327;54.254;18.504;2023-03-13T22:48:48;7;7;6
51258;PMS7003;37327;54.254;18.504;2023-03-13T22:52:06;6;6;6
51258;PMS7003;37327;54.254;18.504;2023-03-13T22:55:23;7;6;5
51258;PMS7003;37327;54.254;18.504;2023-03-13T22:58:41;9;7;6
51258;PMS7003;37327;54.254;18.504;2023-03-13T23:01:58;6;4;4
51258;PMS7003;37327;54.254;18.504;2023-03-13T23:05:15;8;8;8
51258;PMS7003;37327;54.254;18.504;2023-03-13T23:08:34;6;6;5
51258;PMS7003;37327;54.254;18.504;2023-03-13T23:11:51;7;7;6
51258;PMS7003;37327;54.254;18.504;2023-03-13T23:15:09;4;4;4
51258;PMS7003;37327;54.254;18.504;2023-03-13T23:18:27;5;5;5
51258;PMS7003;37327;54.254;18.504;2023-03-13T23:21:45;8;7;7
51258;PMS7003;37327;54.254;18.504;2023-03-13T23:25:03;6;6;6
51258;PMS7003;37327;54.254;18.504;2023-03-13T23:28:21;9;9;8
51258;PMS7003;37327;54.254;18.504;2023-03-13T23:31:38;5;4;3
51258;PMS7003;37327;54.254;18.504;2023-03-13T23:34:55;8;7;6
51258;PMS7003;37327;54.254;18.504;2023-03-13T23:38:15;6;6;5
51258;PMS7003;37327;54.254;18.504;2023-03-13T23:41:39;7;7;5
51258;PMS7003;37327;54.254;18.504;2023-03-13T23:44:56;7;6;6
51258;PMS7003;37327;54.254;18.504;2023-03-13T23:48:14;7;5;5
51258;PMS7003;37327;54.254;18.504;2023-03-13T23:51:31;4;2;2
51258;PMS7003;37327;54.254;18.504;2023-03-13T23:54:51;7;5;5
51258;PMS7003;37327;54.254;18.504;2023-03-13T23:58:09;7;7;6
